Aviation Digital Data Service (ADDS)

Output produced by METARs form (1630 UTC 23 October 2014)
found at http://aviationweather.gov/adds/metars/
 
KRDU 231553Z 2316/2412 33012KT P6SM SKC 
     FM232100 31005KT P6SM SKC